Latest Weather Observations for Newman Airport

IDW60801

Issued at 10:34 pm WST Saturday 10 December 2016 (issued every 30 minutes, with the page automatically refreshed every 10 minutes)

About weather observations | Map of weather stations | Latest weather observations for WA | Other Formats
Station Details ID: 007176 Name: NEWMAN AERO Lat: -23.42 Lon: 119.80 Height: 524.0 m
Data from the previous 72 hours. | See also: Recent months at Newman Airport
Date/Time
WST
Temp
°C
App
Temp
°C
Dew
Point
°C
Rel
Hum
%
Delta-T
°C
Wind Press
QNH
hPa
Press
MSL
hPa
Rain since
9am
mm
Dir  Spd
km/h
Gust
km/h
Spd
kts
Gust
kts
10/10:30pm 33.9 29.9 11.7 26 13.4 NE 24 39 13 21 1012.3 1007.9 0.0
10/10:00pm 34.7 30.8 3.3 14 16.7 ENE 13 24 7 13 1012.4 1008.0 0.0
10/09:30pm 33.3 31.0 5.0 17 15.4 ESE 6 9 3 5 1012.3 1007.9 0.0
10/09:00pm 33.9 31.7 6.3 18 15.3 ENE 7 9 4 5 1012.1 1007.7 0.0
10/08:30pm 34.4 32.1 5.8 17 15.8 NE 7 11 4 6 1011.8 1007.4 0.0
10/08:00pm 35.1 32.9 5.5 16 16.3 NNE 6 9 3 5 1011.5 1007.0 0.0
10/07:30pm 35.7 33.1 4.1 14 17.1 NE 7 9 4 5 1011.1 1006.7 0.0
10/07:00pm 36.5 33.8 3.7 13 17.7 NNE 7 9 4 5 1010.7 1006.3 0.0
10/06:30pm 36.6 33.5 3.7 13 17.8 NNE 9 13 5 7 1010.4 1006.0 0.0
10/06:00pm 37.2 33.6 3.1 12 18.4 ENE 11 15 6 8 1010.1 1005.7 0.0
10/05:30pm 38.0 34.5 1.1 10 19.3 ESE 9 13 5 7 1009.9 1005.4 0.0
10/05:00pm 38.4 34.9 1.4 10 19.5 NNE 9 20 5 11 1009.8 1005.3 0.0
10/04:30pm 38.1 34.0 2.5 11 19.0 NE 13 22 7 12 1009.9 1005.4 0.0
10/04:00pm 38.1 34.4 2.5 11 19.1 NE 11 26 6 14 1010.1 1005.7 0.0
10/03:30pm 38.5 33.7 2.8 11 19.2 NE 17 28 9 15 1010.2 1005.8 0.0
10/03:00pm 39.0 34.5 1.9 10 19.8 ESE 15 24 8 13 1010.5 1006.1 0.0
10/02:30pm 38.7 33.2 1.6 10 19.6 E 20 33 11 18 1011.0 1006.6 0.0
10/02:00pm 39.3 34.4 2.1 10 19.9 ESE 17 32 9 17 1011.5 1007.0 0.0
10/01:30pm 37.7 33.8 3.4 12 18.6 NE 13 19 7 10 1011.9 1007.5 0.0
10/01:00pm 38.1 34.7 3.8 12 18.7 N 11 20 6 11 1012.3 1007.9 0.0
10/12:30pm 37.2 33.5 4.2 13 18.0 NE 13 20 7 11 1012.9 1008.5 0.0
10/12:00pm 36.9 32.2 5.0 14 17.6 E 19 26 10 14 1013.4 1008.9 0.0
10/11:30am 36.1 32.2 5.4 15 17.0 ENE 15 26 8 14 1013.8 1009.4 0.0
10/11:00am 36.4 31.6 5.6 15 17.1 E 20 35 11 19 1014.3 1009.9 0.0
10/10:30am 35.4 31.0 6.6 17 16.2 E 19 35 10 19 1014.6 1010.2 0.0
10/10:00am 34.8 30.1 6.2 17 15.9 E 20 32 11 17 1014.9 1010.5 0.0
10/09:30am 34.3 29.5 4.9 16 16.0 E 19 37 10 20 1015.1 1010.7 0.0
10/09:00am 34.1 28.9 5.6 17 15.7 E 22 33 12 18 1015.1 1010.7 0.0
10/08:30am 33.6 29.3 6.8 19 15.0 E 19 28 10 15 1015.2 1010.8 0.0
10/08:00am 33.2 30.2 7.9 21 14.4 ESE 13 20 7 11 1015.2 1010.8 0.0
10/07:30am 31.5 28.6 9.7 26 12.6 SSE 15 19 8 10 1015.1 1010.7 0.0
10/07:00am 29.6 27.8 10.7 31 11.0 SE 11 17 6 9 1015.1 1010.7 0.0
10/06:30am 26.8 24.0 11.3 38 9.0 SSE 17 20 9 11 1015.0 1010.6 0.0
10/06:00am 25.2 23.8 12.1 44 7.7 SSE 11 15 6 8 1015.1 1010.7 0.0
10/05:30am 24.0 22.3 12.6 49 6.7 SSE 13 15 7 8 1014.8 1010.4 0.0
10/05:00am 23.7 22.6 13.0 51 6.3 SSE 11 17 6 9 1014.5 1010.1 0.0
10/04:30am 23.8 23.0 12.8 50 6.5 ESE 9 11 5 6 1013.9 1009.5 0.0
10/04:00am 24.2 23.7 12.5 48 6.9 SSW 7 11 4 6 1013.8 1009.4 0.0
10/03:30am 24.6 25.0 11.2 43 7.7 CALM 0 0 0 0 1013.6 1009.2 0.0
10/03:00am 25.5 26.0 11.7 42 8.0 CALM 0 7 0 4 1013.6 1009.2 0.0
10/02:30am 26.2 24.3 11.9 41 8.4 NW 13 30 7 16 1013.6 1009.2 0.0
10/02:00am 26.1 25.2 10.7 38 8.9 SW 6 9 3 5 1013.2 1008.8 0.0
10/01:30am 26.2 26.1 9.5 35 9.4 CALM 0 7 0 4 1013.4 1008.9 0.0
10/01:00am 26.6 26.2 9.9 35 9.5 NNW 2 6 1 3 1013.6 1009.2 0.0
10/12:30am 27.5 26.2 9.3 32 10.3 NW 6 7 3 4 1013.9 1009.5 0.0
10/12:00am 27.2 25.8 9.5 33 10.0 WNW 7 9 4 5 1014.2 1009.8 0.0
 
Date/Time
WST
Temp
°C
App
Temp
°C
Dew
Point
°C
Rel
Hum
%
Delta-T
°C
Wind Press
QNH
hPa
Press
MSL
hPa
Rain since
9am
mm
Dir  Spd
km/h
Gust
km/h
Spd
kts
Gust
kts
09/11:30pm 27.4 25.6 9.3 32 10.2 WNW 9 13 5 7 1014.7 1010.3 0.0
09/11:00pm 27.8 26.3 9.1 31 10.5 S 7 9 4 5 1014.8 1010.4 0.0
09/10:30pm 27.8 26.5 9.1 31 10.5 SW 6 7 3 4 1015.0 1010.6 0.0
09/10:00pm 27.9 26.4 9.2 31 10.6 W 7 9 4 5 1015.0 1010.6 0.0
09/09:30pm 28.1 26.9 9.4 31 10.6 WSW 6 7 3 4 1015.0 1010.6 0.0
09/09:00pm 28.5 27.2 9.2 30 10.9 SSW 6 7 3 4 1014.6 1010.2 0.0
09/08:30pm 28.9 27.6 9.1 29 11.2 SSE 6 7 3 4 1014.2 1009.8 0.0
09/08:00pm 29.3 27.2 8.4 27 11.7 SE 9 13 5 7 1014.1 1009.7 0.0
09/07:30pm 29.7 28.1 8.7 27 11.9 SE 7 9 4 5 1013.9 1009.5 0.0
09/07:00pm 30.3 28.5 8.1 25 12.5 SE 7 11 4 6 1013.7 1009.3 0.0
09/06:30pm 30.6 28.4 7.7 24 12.8 ESE 9 11 5 6 1013.5 1009.0 0.0
09/06:00pm 31.0 28.7 7.5 23 13.1 ENE 9 11 5 6 1013.0 1008.6 0.0
09/05:30pm 31.2 27.8 7.6 23 13.2 ENE 15 20 8 11 1012.6 1008.2 0.0
09/05:00pm 31.0 27.3 8.1 24 12.9 ENE 17 24 9 13 1012.6 1008.2 0.0
09/04:30pm 31.1 27.7 9.3 26 12.5 E 17 22 9 12 1012.4 1008.0 0.0
09/04:00pm 31.4 28.3 9.0 25 12.8 E 15 20 8 11 1012.6 1008.2 0.0
09/03:30pm 31.6 28.6 9.2 25 12.9 ESE 15 24 8 13 1012.5 1008.1 0.0
09/03:00pm 32.1 29.0 9.0 24 13.3 NE 15 28 8 15 1012.9 1008.5 0.0
09/02:30pm 31.8 29.2 9.3 25 13.0 NE 13 20 7 11 1013.4 1008.9 0.0
09/02:00pm 31.4 28.7 9.0 25 12.8 ENE 13 22 7 12 1013.8 1009.4 0.0
09/01:30pm 30.7 27.8 9.6 27 12.2 NE 15 20 8 11 1014.0 1009.6 0.0
09/01:00pm 31.4 28.3 10.2 27 12.4 NE 17 24 9 13 1014.3 1009.9 0.0
09/12:30pm 31.0 28.1 10.9 29 11.8 ENE 17 24 9 13 1014.0 1009.6 0.0
09/12:00pm 30.7 28.6 11.1 30 11.6 E 13 19 7 10 1014.2 1009.8 0.0
09/11:30am 30.6 27.6 10.5 29 11.7 E 17 26 9 14 1014.4 1010.0 0.0
09/11:00am 30.1 27.1 12.1 33 10.8 E 19 30 10 16 1014.6 1010.2 0.0
09/10:30am 30.2 27.6 13.9 37 10.0 ESE 20 33 11 18 1014.7 1010.3 0.0
09/10:00am 29.7 28.3 16.5 45 8.4 ESE 19 30 10 16 1014.7 1010.3 0.0
09/09:30am 29.6 29.7 17.4 47 7.9 ESE 13 22 7 12 1014.9 1010.5 0.0
09/09:00am 28.6 28.6 18.1 53 6.8 ESE 15 22 8 12 1015.0 1010.6 0.4
09/08:30am 27.6 27.7 18.3 57 6.0 ESE 15 24 8 13 1015.1 1010.7 0.4
09/08:00am 27.3 27.8 18.3 58 5.8 ESE 13 17 7 9 1015.0 1010.6 0.4
09/07:30am 26.7 26.7 18.0 59 5.6 SE 15 20 8 11 1014.8 1010.4 0.4
09/07:00am 26.0 27.2 18.2 62 5.0 SE 9 13 5 7 1014.8 1010.4 0.4
09/06:30am 25.3 26.5 18.2 64 4.6 SSE 9 13 5 7 1014.7 1010.3 0.4
09/06:00am 24.5 26.2 18.4 69 3.9 SSE 7 9 4 5 1014.5 1010.1 0.4
09/05:30am 24.1 26.0 19.0 73 3.3 SSE 7 9 4 5 1013.9 1009.5 0.4
09/05:00am 23.7 25.6 19.0 75 3.1 SSE 7 13 4 7 1013.7 1009.3 0.4
09/04:30am 23.9 25.7 18.8 73 3.3 ENE 7 9 4 5 1013.5 1009.0 0.4
09/04:00am 23.6 26.1 19.1 76 2.9 SE 4 9 2 5 1013.5 1009.0 0.4
09/03:30am 23.4 25.6 19.3 78 2.7 S 6 9 3 5 1013.4 1008.9 0.4
09/03:00am 23.2 25.0 19.6 80 2.4 S 9 13 5 7 1013.1 1008.7 0.4
09/02:30am 23.3 25.5 19.5 79 2.5 ESE 7 11 4 6 1012.9 1008.5 0.2
09/02:00am 23.8 25.3 18.9 74 3.2 E 9 13 5 7 1012.7 1008.3 0.2
09/01:30am 23.9 25.5 18.3 71 3.6 NNW 7 11 4 6 1012.5 1008.1 0.2
09/01:00am 24.6 25.0 18.1 67 4.2 N 13 20 7 11 1012.4 1008.0 0.2
09/12:30am 24.8 25.0 18.5 68 4.1 N 15 24 8 13 1012.6 1008.2 0.2
09/12:00am 25.3 25.1 18.5 66 4.4 N 17 24 9 13 1013.0 1008.6 0.2
 
Date/Time
WST
Temp
°C
App
Temp
°C
Dew
Point
°C
Rel
Hum
%
Delta-T
°C
Wind Press
QNH
hPa
Press
MSL
hPa
Rain since
9am
mm
Dir  Spd
km/h
Gust
km/h
Spd
kts
Gust
kts
08/11:30pm 24.8 25.9 19.6 73 3.4 N 13 17 7 9 1013.5 1009.0 0.2
08/11:00pm 24.9 26.2 20.2 75 3.1 N 13 17 7 9 1013.9 1009.5 0.2
08/10:30pm 26.7 26.4 18.3 60 5.4 N 17 22 9 12 1013.9 1009.5 0.2
08/10:00pm 27.4 27.4 17.3 54 6.5 N 13 17 7 9 1014.3 1009.9 0.2
08/09:30pm 27.7 27.6 16.9 51 6.9 N 13 20 7 11 1013.8 1009.4 0.2
08/09:00pm 27.5 26.7 17.1 53 6.6 N 17 26 9 14 1012.8 1008.4 0.2
08/08:30pm 27.7 26.3 16.9 51 6.9 N 20 28 11 15 1012.6 1008.2 0.2
08/08:00pm 28.2 26.8 17.1 51 7.1 NNE 20 30 11 16 1012.6 1008.2 0.2
08/07:30pm 29.5 28.2 16.7 46 8.2 NNE 19 24 10 13 1012.3 1007.9 0.2
08/07:00pm 29.7 29.0 16.5 45 8.4 NNE 15 20 8 11 1011.5 1007.0 0.2
08/06:30pm 28.8 28.8 18.0 52 7.0 NNE 15 20 8 11 1010.7 1006.3 0.2
08/06:00pm 26.8 27.5 19.7 65 4.7 N 15 20 8 11 1010.7 1006.3 0.0
08/05:30pm 28.9 27.2 18.1 52 7.0 NW 24 37 13 20 1011.0 1006.6 0.0
08/05:00pm 33.1 30.7 13.7 31 12.0 N 19 30 10 16 1010.0 1005.5 0.0
08/04:30pm 34.5 31.2 11.0 24 14.1 E 19 24 10 13 1009.6 1005.1 0.0
08/04:00pm 34.8 32.2 11.9 25 13.9 E 17 22 9 12 1009.6 1005.1 0.0
08/03:30pm 34.6 32.7 11.7 25 13.9 S 13 22 7 12 1009.7 1005.2 0.0
08/03:00pm 34.3 31.9 12.6 27 13.3 ESE 17 22 9 12 1009.9 1005.4 0.0
08/02:30pm 34.1 31.1 12.4 26 13.2 E 20 28 11 15 1009.9 1005.4 0.0
08/02:00pm 35.0 31.1 12.0 25 14.0 ESE 24 33 13 18 1010.1 1005.7 0.0
08/01:30pm 34.6 32.5 12.3 26 13.6 SE 15 20 8 11 1010.1 1005.7 0.0
08/01:00pm 34.0 30.4 12.9 28 13.0 E 24 33 13 18 1010.4 1006.0 0.0
08/12:47pm 34.8 30.3 12.5 26 13.7 ENE 28 41 15 22 1010.4 1006.0 0.0
08/12:30pm 35.9 34.3 11.5 23 14.8 SE 11 17 6 9 1010.5 1006.1 0.0
08/12:00pm 35.8 34.9 11.4 23 14.8 ENE 7 11 4 6 1010.8 1006.4 0.0
08/11:30am 35.0 34.3 11.4 24 14.2 SSW 6 13 3 7 1011.2 1006.8 0.0
08/11:00am 35.0 33.4 11.4 24 14.2 ENE 11 20 6 11 1011.7 1007.2 0.0
08/10:30am 35.1 33.3 10.9 23 14.5 SE 11 22 6 12 1011.9 1007.5 0.0
08/10:00am 34.7 33.2 13.0 27 13.4 ESE 13 20 7 11 1012.2 1007.8 0.0
08/09:30am 34.0 33.7 14.5 31 12.3 ESE 9 20 5 11 1012.4 1008.0 0.0
08/09:00am 33.1 32.7 15.1 33 11.4 ESE 11 20 6 11 1012.6 1008.2 0.0
08/08:30am 31.9 32.0 15.4 37 10.4 S 9 17 5 9 1012.6 1008.2 0.0
08/08:00am 30.8 31.5 16.0 40 9.4 SW 7 13 4 7 1012.7 1008.3 0.0
08/07:30am 30.0 30.4 16.4 44 8.7 WSW 9 15 5 8 1012.7 1008.3 0.0
08/07:00am 29.3 30.3 16.8 47 8.0 WSW 7 13 4 7 1012.7 1008.3 0.0
08/06:30am 28.4 30.0 16.0 47 7.8 NNE 2 7 1 4 1012.5 1008.1 0.0
08/06:00am 26.5 27.1 15.8 51 6.7 ENE 7 9 4 5 1012.3 1007.9 0.0
08/05:30am 25.2 25.8 15.8 56 5.8 ENE 7 11 4 6 1011.9 1007.5 0.0
08/05:00am 25.7 26.3 15.7 54 6.2 NE 7 9 4 5 1011.6 1007.1 0.0
08/04:30am 26.0 27.9 15.7 53 6.4 CALM 0 0 0 0 1011.1 1006.7 0.0
08/04:00am 26.3 27.0 16.0 53 6.5 ENE 7 9 4 5 1010.9 1006.5 0.0
08/03:30am 26.6 28.6 15.9 51 6.7 CALM 0 0 0 0 1010.9 1006.5 0.0
08/03:00am 26.8 28.7 15.8 51 6.9 CALM 0 0 0 0 1011.0 1006.6 0.0
08/02:30am 27.2 29.2 15.9 50 7.1 CALM 0 0 0 0 1011.0 1006.6 0.0
08/02:00am 27.7 28.4 16.0 49 7.4 WSW 7 9 4 5 1011.0 1006.6 0.0
08/01:30am 28.2 28.5 16.1 47 7.6 W 9 11 5 6 1010.9 1006.5 0.0
08/01:00am 28.2 28.9 16.1 47 7.6 SW 7 11 4 6 1011.0 1006.6 0.0
08/12:30am 28.6 29.3 16.2 47 7.8 NW 7 9 4 5 1011.5 1007.0 0.0
08/12:00am 28.7 28.8 16.6 48 7.7 NW 11 17 6 9 1011.7 1007.2 0.0
 
Date/Time
WST
Temp
°C
App
Temp
°C
Dew
Point
°C
Rel
Hum
%
Delta-T
°C
Wind Press
QNH
hPa
Press
MSL
hPa
Rain since
9am
mm
Dir  Spd
km/h
Gust
km/h
Spd
kts
Gust
kts
07/11:30pm 28.8 28.6 16.7 48 7.7 NW 13 19 7 10 1012.1 1007.7 0.0
07/11:00pm 28.8 28.2 15.7 45 8.2 WNW 13 20 7 11 1012.4 1008.0 0.0

Other Formats:

Comma delimited format used in spreadsheet applications
http://www.bom.gov.au/fwo/IDW60801/IDW60801.94317.axf

JavaScript Object Notation format (JSON) in row-major order
http://www.bom.gov.au/fwo/IDW60801/IDW60801.94317.json